Terminal Aerodrome Forecast
Issued by NWS Shreveport, LA

Home | Current Version | Previous Version | Text Only | Print | Product List | Glossary On
Versions: 1 2 3 4 5 6 7 8 9 10 11 12 13 14 15 16 17 18 19 20
000
FTUS44 KSHV 250500 RRA
TAFTXK
TAF
KTXK 250541Z 2506/2606 00000KT 6SM BR SKC
      TEMPO 2507/2509 3SM BR SCT025
     FM250900 11003KT 2SM BR SCT030 BKN250
      TEMPO 2510/2513 2SM BR BKN025
     FM251400 VRB04KT P6SM SCT025 SCT250=

USA.gov is the U.S. government's official web portal to all federal, state and local government web resources and services.